Northern Power — A8TL6 — position and weather

sailwx.info

Track history (hours):
 
Tides and Currents Weather Stations Pressure Air Temp Water Temp Dewpoint Dewpoint Depression Visibility Wind Speed Wind Dir Waves Ship Positions

Northern Power

Last reported at 2015-Aug-18 09:33 UTC. Time now 2015-Sep-03 06:54 UTC.
Position N 02°59' E 100°49'.
Warning: this ship's position is 15 days out of date.

Length 264 m; draft 9.3 m.

Type: Cargo ship. MMSI: 636091835.

Date/timePositionNaut miles runAvg speedWind from/ knotsBaromVisibWave heightAir tempDewpointWater temp
2015-Aug-18 09:33N 02°59' E 100°49'3517.4
2015-Aug-18 07:33N 02°41' E 101°19'16817.7
2015-Aug-17 22:03N 01°10' E 103°41'714.4
2015-Aug-17 21:34N 01°10' E 103°48'6 5.8
2015-Aug-17 20:33N 01°15' E 103°51'0 0.4
2015-Aug-17 19:31N 01°16' E 103°51'0 0.0
2015-Aug-17 18:22N 01°16' E 103°51'0 0.0
2015-Aug-17 17:28N 01°16' E 103°51'0 0.0
2015-Aug-17 16:31N 01°16' E 103°51'0 0.0
2015-Aug-17 15:31N 01°16' E 103°51'0 0.0
2015-Aug-17 14:31N 01°16' E 103°51'0 0.0
2015-Aug-17 13:31N 01°16' E 103°51'0 0.0
2015-Aug-17 11:31N 01°16' E 103°51'0 0.1
2015-Aug-17 10:31N 01°16' E 103°51'0 0.1
2015-Aug-17 09:31N 01°16' E 103°51'0 0.0
2015-Aug-17 08:22N 01°16' E 103°51'0 0.0
2015-Aug-17 07:28N 01°16' E 103°51'0 0.0
2015-Aug-17 06:16N 01°16' E 103°51'0 0.0
2015-Aug-17 05:31N 01°16' E 103°51'0 0.0
2015-Aug-17 04:31N 01°16' E 103°51'0 0.0
2015-Aug-17 03:31N 01°16' E 103°51'0 0.0
2015-Aug-17 02:31N 01°16' E 103°51'0 0.0
2015-Aug-17 01:25N 01°16' E 103°51'0 0.1
2015-Aug-17 00:31N 01°16' E 103°51'0 0.1
2015-Aug-16 23:31N 01°16' E 103°51'0 0.1
2015-Aug-16 22:31N 01°16' E 103°51'0 0.0
2015-Aug-16 21:31N 01°16' E 103°51'0 0.0
2015-Aug-16 20:31N 01°16' E 103°51'0 0.0
2015-Aug-16 19:28N 01°16' E 103°51'0 0.1
2015-Aug-16 18:25N 01°16' E 103°51'0 0.0
2015-Aug-16 17:28N 01°16' E 103°51'0 0.0
2015-Aug-16 16:31N 01°16' E 103°51'0 0.0
2015-Aug-16 14:28N 01°16' E 103°51'0 0.0
2015-Aug-16 13:31N 01°16' E 103°51'0 0.0
2015-Aug-16 12:31N 01°16' E 103°51'0 0.3
2015-Aug-16 11:33N 01°16' E 103°51'4 4.3
2015-Aug-16 10:33N 01°11' E 103°52'12513.4
2015-Aug-16 01:14N 02°06' E 102°00'3219.1
2015-Aug-15 23:33N 02°27' E 101°35'3115.6
2015-Aug-15 21:33N 02°50' E 101°15'1211.7
2015-Aug-15 20:33N 03°00' E 101°21'1 0.4
2015-Aug-15 18:21N 03°01' E 101°21'0 0.0
2015-Aug-15 16:33N 03°01' E 101°21'0 0.0
2015-Aug-15 14:33N 03°01' E 101°21'0 0.0
2015-Aug-15 12:27N 03°01' E 101°21'0 0.1
2015-Aug-15 09:33N 03°01' E 101°21'20 9.9
2015-Aug-15 07:33N 03°17' E 101°10'1 1.4
2015-Aug-15 06:33N 03°18' E 101°09'17 8.7
2015-Aug-15 04:33N 03°26' E 100°53'  
Track history (hours):
 
Tides and Currents Weather Stations Pressure Air Temp Water Temp Dewpoint Dewpoint Depression Visibility Wind Speed Wind Dir Waves Ship Positions

Northern Power

Last reported at 2015-Aug-18 09:33 UTC. Time now 2015-Sep-03 06:54 UTC.
Position N 02°59' E 100°49'.
Warning: this ship's position is 15 days out of date.

Length 264 m; draft 9.3 m.

Type: Cargo ship. MMSI: 636091835.

Date/timePositionNaut miles runAvg speedWind from/ knotsBaromVisibWave heightAir tempDewpointWater temp
2015-Aug-18 09:33N 02°59' E 100°49'3517.4
2015-Aug-18 07:33N 02°41' E 101°19'16817.7
2015-Aug-17 22:03N 01°10' E 103°41'714.4
2015-Aug-17 21:34N 01°10' E 103°48'6 5.8
2015-Aug-17 20:33N 01°15' E 103°51'0 0.4
2015-Aug-17 19:31N 01°16' E 103°51'0 0.0
2015-Aug-17 18:22N 01°16' E 103°51'0 0.0
2015-Aug-17 17:28N 01°16' E 103°51'0 0.0
2015-Aug-17 16:31N 01°16' E 103°51'0 0.0
2015-Aug-17 15:31N 01°16' E 103°51'0 0.0
2015-Aug-17 14:31N 01°16' E 103°51'0 0.0
2015-Aug-17 13:31N 01°16' E 103°51'0 0.0
2015-Aug-17 11:31N 01°16' E 103°51'0 0.1
2015-Aug-17 10:31N 01°16' E 103°51'0 0.1
2015-Aug-17 09:31N 01°16' E 103°51'0 0.0
2015-Aug-17 08:22N 01°16' E 103°51'0 0.0
2015-Aug-17 07:28N 01°16' E 103°51'0 0.0
2015-Aug-17 06:16N 01°16' E 103°51'0 0.0
2015-Aug-17 05:31N 01°16' E 103°51'0 0.0
2015-Aug-17 04:31N 01°16' E 103°51'0 0.0
2015-Aug-17 03:31N 01°16' E 103°51'0 0.0
2015-Aug-17 02:31N 01°16' E 103°51'0 0.0
2015-Aug-17 01:25N 01°16' E 103°51'0 0.1
2015-Aug-17 00:31N 01°16' E 103°51'0 0.1
2015-Aug-16 23:31N 01°16' E 103°51'0 0.1
2015-Aug-16 22:31N 01°16' E 103°51'0 0.0
2015-Aug-16 21:31N 01°16' E 103°51'0 0.0
2015-Aug-16 20:31N 01°16' E 103°51'0 0.0
2015-Aug-16 19:28N 01°16' E 103°51'0 0.1
2015-Aug-16 18:25N 01°16' E 103°51'0 0.0
2015-Aug-16 17:28N 01°16' E 103°51'0 0.0
2015-Aug-16 16:31N 01°16' E 103°51'0 0.0
2015-Aug-16 14:28N 01°16' E 103°51'0 0.0
2015-Aug-16 13:31N 01°16' E 103°51'0 0.0
2015-Aug-16 12:31N 01°16' E 103°51'0 0.3
2015-Aug-16 11:33N 01°16' E 103°51'4 4.3
2015-Aug-16 10:33N 01°11' E 103°52'12513.4
2015-Aug-16 01:14N 02°06' E 102°00'3219.1
2015-Aug-15 23:33N 02°27' E 101°35'3115.6
2015-Aug-15 21:33N 02°50' E 101°15'1211.7
2015-Aug-15 20:33N 03°00' E 101°21'1 0.4
2015-Aug-15 18:21N 03°01' E 101°21'0 0.0
2015-Aug-15 16:33N 03°01' E 101°21'0 0.0
2015-Aug-15 14:33N 03°01' E 101°21'0 0.0
2015-Aug-15 12:27N 03°01' E 101°21'0 0.1
2015-Aug-15 09:33N 03°01' E 101°21'20 9.9
2015-Aug-15 07:33N 03°17' E 101°10'1 1.4
2015-Aug-15 06:33N 03°18' E 101°09'17 8.7
2015-Aug-15 04:33N 03°26' E 100°53'  

Dump ship's entire track history